createdAt,value
2022-07-29T00:00:09.721Z,9.719199
2022-07-29T00:01:08.685Z,9.719267
2022-07-29T00:02:09.678Z,9.719298
2022-07-29T00:03:08.731Z,9.719354
2022-07-29T00:04:08.703Z,9.719336
2022-07-29T00:05:08.672Z,9.719532
2022-07-29T00:06:08.647Z,9.719531
2022-07-29T00:07:08.625Z,9.719404
2022-07-29T00:08:12.403Z,9.719749
2022-07-29T00:09:09.626Z,9.719479
2022-07-29T00:10:08.618Z,9.719842
2022-07-29T00:11:08.598Z,9.719753
2022-07-29T00:12:08.582Z,9.719564
2022-07-29T00:13:08.582Z,9.719522
2022-07-29T00:14:08.574Z,9.719689
2022-07-29T00:15:08.575Z,9.719408
2022-07-29T00:16:40.595Z,9.719520
2022-07-29T00:17:08.559Z,9.719377
2022-07-29T00:18:08.538Z,9.718793
2022-07-29T00:19:08.536Z,9.719266
2022-07-29T00:20:08.511Z,9.719172
2022-07-29T00:21:08.504Z,9.718941
2022-07-29T00:22:08.541Z,9.719249
2022-07-29T00:23:08.486Z,9.719236
2022-07-29T00:24:09.477Z,9.719328
2022-07-29T00:25:08.468Z,9.719213
2022-07-29T00:26:08.449Z,9.719147
2022-07-29T00:27:08.475Z,9.719464
2022-07-29T00:28:08.436Z,9.719449
2022-07-29T00:29:38.089Z,9.719492
2022-07-29T00:30:10.425Z,9.719086
2022-07-29T00:31:08.443Z,9.719250
2022-07-29T00:32:08.403Z,9.719334
2022-07-29T00:33:09.291Z,9.719144
2022-07-29T00:34:09.376Z,9.719321
2022-07-29T00:35:08.365Z,9.719301
2022-07-29T00:36:08.347Z,9.719255
2022-07-29T00:37:08.352Z,9.719117
2022-07-29T00:38:08.362Z,9.719117
2022-07-29T00:39:08.334Z,9.719105
2022-07-29T00:40:08.319Z,9.718939
2022-07-29T00:41:08.300Z,9.718946
2022-07-29T00:42:08.305Z,9.719045
2022-07-29T00:43:08.312Z,9.719216
2022-07-29T00:44:08.269Z,9.719306
2022-07-29T00:45:08.301Z,9.719115
2022-07-29T00:46:08.255Z,9.719262
2022-07-29T00:47:08.354Z,9.719153
2022-07-29T00:48:08.238Z,9.719156
2022-07-29T00:49:08.245Z,9.719155
2022-07-29T00:50:08.236Z,9.719382
2022-07-29T00:51:08.214Z,9.719161
2022-07-29T00:52:08.205Z,9.718992
2022-07-29T00:53:08.190Z,9.719398
2022-07-29T00:54:08.189Z,9.719297
2022-07-29T00:55:08.774Z,9.719027
2022-07-29T00:56:09.179Z,9.719068
2022-07-29T00:57:08.135Z,9.718969
2022-07-29T00:58:08.136Z,9.719316
2022-07-29T00:59:08.133Z,9.719264
2022-07-29T01:00:08.143Z,9.719184
2022-07-29T01:01:08.178Z,9.719069
2022-07-29T01:02:08.155Z,9.719080
2022-07-29T01:03:08.100Z,9.719057
2022-07-29T01:04:08.077Z,9.718881
2022-07-29T01:05:08.102Z,9.719002
2022-07-29T01:06:08.080Z,9.719033
2022-07-29T01:07:08.044Z,9.719124
2022-07-29T01:08:08.052Z,9.719129
2022-07-29T01:09:08.033Z,9.719243
2022-07-29T01:10:08.038Z,9.719338
2022-07-29T01:11:08.017Z,9.719386
2022-07-29T01:12:08.024Z,9.719078
2022-07-29T01:13:08.530Z,9.719116
2022-07-29T01:14:07.989Z,9.719255
2022-07-29T01:15:07.998Z,9.719134
2022-07-29T01:16:08.014Z,9.719108
2022-07-29T01:17:07.960Z,9.719151
2022-07-29T01:18:07.959Z,9.719202
2022-07-29T01:19:07.936Z,9.719241
2022-07-29T01:20:07.937Z,9.719303
2022-07-29T01:21:07.935Z,9.719099
2022-07-29T01:22:07.908Z,9.719130
2022-07-29T01:23:07.921Z,9.719221
2022-07-29T01:24:07.880Z,9.719098
2022-07-29T01:25:07.903Z,9.719051
2022-07-29T01:26:07.853Z,9.719035
2022-07-29T01:27:07.857Z,9.719093
2022-07-29T01:28:08.248Z,9.719066
2022-07-29T01:29:08.211Z,9.718910
2022-07-29T01:30:07.852Z,9.719021
2022-07-29T01:31:07.926Z,9.719277
2022-07-29T01:32:07.861Z,9.719246
2022-07-29T01:33:08.795Z,9.719063
2022-07-29T01:34:07.797Z,9.719160
2022-07-29T01:35:07.795Z,9.719234
2022-07-29T01:36:07.771Z,9.719070
2022-07-29T01:37:07.761Z,9.719146
2022-07-29T01:38:07.752Z,9.719086
2022-07-29T01:39:07.737Z,9.718899
2022-07-29T01:40:07.764Z,9.719146
2022-07-29T01:41:07.741Z,9.719176
2022-07-29T01:42:07.700Z,9.719232
2022-07-29T01:43:07.701Z,9.719134
2022-07-29T01:44:07.682Z,9.719257
2022-07-29T01:45:07.668Z,9.719336
2022-07-29T01:46:07.721Z,9.719304
2022-07-29T01:47:07.698Z,9.719141
2022-07-29T01:48:07.653Z,9.719140
2022-07-29T01:49:07.682Z,9.718917
2022-07-29T01:50:07.626Z,9.719009
2022-07-29T01:51:07.628Z,9.719155
2022-07-29T01:52:07.606Z,9.719094
2022-07-29T01:53:07.591Z,9.719232
2022-07-29T01:54:07.597Z,9.719148
2022-07-29T01:55:07.573Z,9.719170
2022-07-29T01:56:07.583Z,9.719168
2022-07-29T01:57:07.564Z,9.719177
2022-07-29T01:58:07.547Z,9.719168
2022-07-29T01:59:07.540Z,9.719111
2022-07-29T02:00:07.539Z,9.719128
2022-07-29T02:01:07.512Z,9.719084
2022-07-29T02:02:07.565Z,9.719089
2022-07-29T02:03:07.500Z,9.719105
2022-07-29T02:04:07.501Z,9.719127
2022-07-29T02:05:07.544Z,9.719212
2022-07-29T02:06:07.462Z,9.719217
2022-07-29T02:07:07.475Z,9.719147
2022-07-29T02:08:07.442Z,9.719102
2022-07-29T02:09:08.368Z,9.719071
2022-07-29T02:10:07.430Z,9.719006
2022-07-29T02:11:07.437Z,9.719173
2022-07-29T02:12:07.410Z,9.719117
2022-07-29T02:13:07.398Z,9.719030
2022-07-29T02:14:07.418Z,9.719144
2022-07-29T02:15:07.445Z,9.719143
2022-07-29T02:16:07.395Z,9.719164
2022-07-29T02:17:07.361Z,9.719183
2022-07-29T02:18:07.353Z,9.719059
2022-07-29T02:19:07.345Z,9.719082
2022-07-29T02:20:07.376Z,9.719299
2022-07-29T02:21:15.041Z,9.719414
2022-07-29T02:22:08.304Z,9.719356
2022-07-29T02:23:07.316Z,9.719436
2022-07-29T02:24:07.293Z,9.719327
2022-07-29T02:25:07.274Z,9.719434
2022-07-29T02:26:08.306Z,9.719345
2022-07-29T02:27:07.263Z,9.719186
2022-07-29T02:28:07.249Z,9.719195
2022-07-29T02:29:07.231Z,9.719284
2022-07-29T02:30:07.247Z,9.718992
2022-07-29T02:31:07.270Z,9.719012
2022-07-29T02:32:07.207Z,9.719294
2022-07-29T02:33:07.217Z,9.719358
2022-07-29T02:34:07.196Z,9.719193
2022-07-29T02:35:07.309Z,9.719338
2022-07-29T02:36:07.174Z,9.719149
2022-07-29T02:37:07.160Z,9.719126
2022-07-29T02:38:07.172Z,9.718972
2022-07-29T02:39:07.158Z,9.719012
2022-07-29T02:40:07.129Z,9.719158
2022-07-29T02:41:07.109Z,9.719271
2022-07-29T02:42:07.116Z,9.719185
2022-07-29T02:43:07.098Z,9.719102
2022-07-29T02:44:07.105Z,9.719309
2022-07-29T02:45:07.078Z,9.719015
2022-07-29T02:46:12.747Z,9.719041
2022-07-29T02:47:08.089Z,9.718972
2022-07-29T02:48:07.049Z,9.719245
2022-07-29T02:49:07.090Z,9.719316
2022-07-29T02:50:07.025Z,9.719501
2022-07-29T02:51:07.018Z,9.719326
2022-07-29T02:52:07.038Z,9.719143
2022-07-29T02:53:06.992Z,9.719183
2022-07-29T02:54:06.985Z,9.719227
2022-07-29T02:55:06.982Z,9.719148
2022-07-29T02:56:06.963Z,9.719033
2022-07-29T02:57:06.973Z,9.719297
2022-07-29T02:58:06.930Z,9.719209
2022-07-29T02:59:06.924Z,9.719440
2022-07-29T03:00:06.921Z,9.719316
2022-07-29T03:01:06.917Z,9.719201
2022-07-29T03:02:06.952Z,9.719049
2022-07-29T03:03:06.918Z,9.719205
2022-07-29T03:04:06.887Z,9.719132
2022-07-29T03:05:06.950Z,9.719193
2022-07-29T03:06:06.870Z,9.719228
2022-07-29T03:07:06.861Z,9.719161
2022-07-29T03:08:06.846Z,9.719003
2022-07-29T03:09:12.324Z,9.719154
2022-07-29T03:10:10.997Z,9.719049
2022-07-29T03:11:06.818Z,9.719130
2022-07-29T03:12:06.807Z,9.719148
2022-07-29T03:13:06.795Z,9.719209
2022-07-29T03:14:06.783Z,9.719137
2022-07-29T03:15:06.765Z,9.719080
2022-07-29T03:16:06.843Z,9.719083
2022-07-29T03:17:06.758Z,9.719213
2022-07-29T03:18:06.743Z,9.719167
2022-07-29T03:19:06.732Z,9.719166
2022-07-29T03:20:06.712Z,9.719199
2022-07-29T03:21:06.720Z,9.719127
2022-07-29T03:22:06.697Z,9.719036
2022-07-29T03:23:06.682Z,9.718970
2022-07-29T03:24:12.516Z,9.719062
2022-07-29T03:25:08.670Z,9.719091
2022-07-29T03:26:06.689Z,9.719141
2022-07-29T03:27:06.665Z,9.719056
2022-07-29T03:28:06.641Z,9.719054
2022-07-29T03:29:06.631Z,9.718965
2022-07-29T03:30:06.655Z,9.719033
2022-07-29T03:31:06.671Z,9.719079
2022-07-29T03:32:07.376Z,9.719135
2022-07-29T03:33:13.478Z,9.719164
2022-07-29T03:34:06.599Z,9.719116
2022-07-29T03:35:06.589Z,9.719049
2022-07-29T03:36:06.571Z,9.719089
2022-07-29T03:37:06.589Z,9.719120
2022-07-29T03:38:06.538Z,9.719017
2022-07-29T03:39:06.541Z,9.719007
2022-07-29T03:40:06.532Z,9.719026
2022-07-29T03:41:06.502Z,9.719074
2022-07-29T03:42:06.521Z,9.719057
2022-07-29T03:43:06.518Z,9.719009
2022-07-29T03:44:06.481Z,9.718995
2022-07-29T03:45:06.477Z,9.719002
2022-07-29T03:46:06.527Z,9.718999
2022-07-29T03:47:06.462Z,9.719023
2022-07-29T03:48:06.455Z,9.718783
2022-07-29T03:49:06.491Z,9.718807
2022-07-29T03:50:06.446Z,9.719013
2022-07-29T03:51:06.407Z,9.719071
2022-07-29T03:52:06.399Z,9.719111
2022-07-29T03:53:06.416Z,9.719049
2022-07-29T03:54:09.850Z,9.719040
2022-07-29T03:55:06.366Z,9.718902
2022-07-29T03:56:06.365Z,9.718988
2022-07-29T03:57:06.358Z,9.719110
2022-07-29T03:58:06.366Z,9.719154
2022-07-29T03:59:06.339Z,9.719135
2022-07-29T04:00:06.324Z,9.719189
2022-07-29T04:01:06.319Z,9.719263
2022-07-29T04:02:06.427Z,9.719238
2022-07-29T04:03:06.348Z,9.719277
2022-07-29T04:04:06.361Z,9.719220
2022-07-29T04:05:06.270Z,9.719252
2022-07-29T04:06:06.259Z,9.719196
2022-07-29T04:07:06.265Z,9.718943
2022-07-29T04:08:06.263Z,9.718887
2022-07-29T04:09:06.226Z,9.719028
2022-07-29T04:10:06.222Z,9.718882
2022-07-29T04:11:06.223Z,9.718862
2022-07-29T04:12:06.197Z,9.718767
2022-07-29T04:13:06.222Z,9.718863
2022-07-29T04:14:06.199Z,9.718894
2022-07-29T04:15:06.189Z,9.719164
2022-07-29T04:16:06.192Z,9.719000
2022-07-29T04:17:06.160Z,9.718987
2022-07-29T04:18:06.147Z,9.718939
2022-07-29T04:19:06.145Z,9.718844
2022-07-29T04:20:06.136Z,9.718707
2022-07-29T04:21:06.121Z,9.718755
2022-07-29T04:22:06.097Z,9.718743
2022-07-29T04:23:06.122Z,9.718738
2022-07-29T04:24:06.084Z,9.718710
2022-07-29T04:25:06.088Z,9.718805
2022-07-29T04:26:06.092Z,9.718885
2022-07-29T04:27:06.064Z,9.718863
2022-07-29T04:28:06.047Z,9.719008
2022-07-29T04:29:06.067Z,9.719110
2022-07-29T04:30:06.020Z,9.719079
2022-07-29T04:31:06.079Z,9.719086
2022-07-29T04:32:06.009Z,9.719043
2022-07-29T04:33:06.018Z,9.719082
2022-07-29T04:34:06.263Z,9.719112
2022-07-29T04:35:05.995Z,9.719063
2022-07-29T04:36:05.971Z,9.719060
2022-07-29T04:37:06.959Z,9.718981
2022-07-29T04:38:05.961Z,9.719011
2022-07-29T04:39:05.948Z,9.719050
2022-07-29T04:40:05.943Z,9.719055
2022-07-29T04:41:05.934Z,9.719131
2022-07-29T04:42:05.917Z,9.719203
2022-07-29T04:43:06.144Z,9.719097
2022-07-29T04:44:05.954Z,9.719117
2022-07-29T04:45:05.896Z,9.719090
2022-07-29T04:46:05.904Z,9.719195
2022-07-29T04:47:05.883Z,9.719176
2022-07-29T04:48:05.846Z,9.719143
2022-07-29T04:49:05.904Z,9.719153
2022-07-29T04:50:05.830Z,9.719164
2022-07-29T04:51:05.813Z,9.719038
2022-07-29T04:52:05.828Z,9.719187
2022-07-29T04:53:05.800Z,9.719084
2022-07-29T04:54:05.780Z,9.719205
2022-07-29T04:55:05.771Z,9.719209
2022-07-29T04:56:06.766Z,9.719189
2022-07-29T04:57:05.760Z,9.719148
2022-07-29T04:58:05.766Z,9.719090
2022-07-29T04:59:05.738Z,9.719055
2022-07-29T05:00:05.737Z,9.719198
2022-07-29T05:01:05.755Z,9.719074
2022-07-29T05:02:05.759Z,9.719091
2022-07-29T05:03:05.780Z,9.719127
2022-07-29T05:04:05.688Z,9.719098
2022-07-29T05:05:05.673Z,9.719131
2022-07-29T05:06:05.669Z,9.719218
2022-07-29T05:07:05.670Z,9.719326
2022-07-29T05:08:05.648Z,9.719252
2022-07-29T05:09:05.651Z,9.719329
2022-07-29T05:10:05.636Z,9.719260
2022-07-29T05:11:12.417Z,9.719220
2022-07-29T05:12:05.602Z,9.719111
2022-07-29T05:13:05.610Z,9.719248
2022-07-29T05:14:05.613Z,9.719225
2022-07-29T05:15:05.574Z,9.719151
2022-07-29T05:16:05.627Z,9.719127
2022-07-29T05:17:05.558Z,9.719166
2022-07-29T05:18:05.545Z,9.719234
2022-07-29T05:19:05.550Z,9.719237
2022-07-29T05:20:05.536Z,9.719201
2022-07-29T05:21:05.510Z,9.719281
2022-07-29T05:22:05.537Z,9.719242
2022-07-29T05:23:05.500Z,9.719178
2022-07-29T05:24:05.487Z,9.719125
2022-07-29T05:25:08.995Z,9.719107
2022-07-29T05:26:06.464Z,9.719251
2022-07-29T05:27:05.479Z,9.719182
2022-07-29T05:28:05.441Z,9.719210
2022-07-29T05:29:05.429Z,9.719278
2022-07-29T05:30:05.427Z,9.719175
2022-07-29T05:31:05.495Z,9.719140
2022-07-29T05:32:05.433Z,9.719114
2022-07-29T05:33:05.417Z,9.719142
2022-07-29T05:34:05.382Z,9.719219
2022-07-29T05:35:05.374Z,9.719157
2022-07-29T05:36:05.378Z,9.719196
2022-07-29T05:37:05.387Z,9.719088
2022-07-29T05:38:05.347Z,9.719149
2022-07-29T05:39:05.339Z,9.719195
2022-07-29T05:40:05.350Z,9.719211
2022-07-29T05:41:05.315Z,9.719174
2022-07-29T05:42:05.306Z,9.719180
2022-07-29T05:43:05.306Z,9.719161
2022-07-29T05:44:05.308Z,9.719083
2022-07-29T05:45:05.305Z,9.719048
2022-07-29T05:46:05.340Z,9.719164
2022-07-29T05:47:05.259Z,9.719192
2022-07-29T05:48:05.244Z,9.719233
2022-07-29T05:49:05.351Z,9.719178
2022-07-29T05:50:05.235Z,9.719163
2022-07-29T05:51:05.358Z,9.719128
2022-07-29T05:52:05.204Z,9.719151
2022-07-29T05:53:19.146Z,9.719108
2022-07-29T05:54:05.200Z,9.719060
2022-07-29T05:55:05.187Z,9.719116
2022-07-29T05:56:05.162Z,9.719105
2022-07-29T05:57:05.161Z,9.719129
2022-07-29T05:58:05.151Z,9.719251
2022-07-29T05:59:05.160Z,9.719185
2022-07-29T06:00:06.173Z,9.719175
2022-07-29T06:01:06.173Z,9.719223
2022-07-29T06:02:05.110Z,9.719182
2022-07-29T06:03:05.102Z,9.719128
2022-07-29T06:04:05.151Z,9.719024
2022-07-29T06:05:05.107Z,9.719027
2022-07-29T06:06:06.079Z,9.719189
2022-07-29T06:07:05.079Z,9.719366
2022-07-29T06:08:05.049Z,9.719249
2022-07-29T06:09:12.611Z,9.719240
2022-07-29T06:10:06.036Z,9.719260
2022-07-29T06:11:05.038Z,9.719232
2022-07-29T06:12:05.048Z,9.719182
2022-07-29T06:13:05.032Z,9.719117
2022-07-29T06:14:04.988Z,9.719011
2022-07-29T06:15:04.996Z,9.719010
2022-07-29T06:16:05.018Z,9.719045
2022-07-29T06:17:36.888Z,9.718975
2022-07-29T06:18:05.017Z,9.719069
2022-07-29T06:19:04.965Z,9.718969
2022-07-29T06:20:04.960Z,9.718950
2022-07-29T06:21:04.965Z,9.718950
2022-07-29T06:22:04.932Z,9.718946
2022-07-29T06:23:04.920Z,9.718971
2022-07-29T06:24:04.930Z,9.719000
2022-07-29T06:25:04.893Z,9.719001
2022-07-29T06:26:04.901Z,9.718936
2022-07-29T06:27:04.892Z,9.718983
2022-07-29T06:28:04.922Z,9.719031
2022-07-29T06:29:04.871Z,9.719172
2022-07-29T06:30:05.436Z,9.719281
2022-07-29T06:31:04.898Z,9.719391
2022-07-29T06:32:04.878Z,9.719398
2022-07-29T06:33:04.830Z,9.719244
2022-07-29T06:34:04.814Z,9.719324
2022-07-29T06:35:37.619Z,9.719317
2022-07-29T06:36:06.793Z,9.719358
2022-07-29T06:37:04.841Z,9.719405
2022-07-29T06:38:06.370Z,9.719513
2022-07-29T06:39:05.756Z,9.719455
2022-07-29T06:40:04.739Z,9.719700
2022-07-29T06:41:04.913Z,9.719944
2022-07-29T06:42:04.747Z,9.720100
2022-07-29T06:43:04.718Z,9.720259
2022-07-29T06:44:04.734Z,9.719471
2022-07-29T06:45:09.220Z,9.718929
2022-07-29T06:46:04.821Z,9.718875
2022-07-29T06:47:04.711Z,9.719028
2022-07-29T06:48:04.704Z,9.718880
2022-07-29T06:49:04.692Z,9.719029
2022-07-29T06:50:04.668Z,9.719007
2022-07-29T06:51:04.645Z,9.719055
2022-07-29T06:52:04.635Z,9.718962
2022-07-29T06:53:04.674Z,9.719115
2022-07-29T06:54:04.611Z,9.718919
2022-07-29T06:55:04.595Z,9.718787
2022-07-29T06:56:04.591Z,9.719251
2022-07-29T06:57:04.618Z,9.719287
2022-07-29T06:58:04.570Z,9.719079
2022-07-29T06:59:04.605Z,9.718924
2022-07-29T07:00:04.585Z,9.718914
2022-07-29T07:01:04.587Z,9.719047
2022-07-29T07:02:04.595Z,9.719116
2022-07-29T07:03:04.520Z,9.719249
2022-07-29T07:04:04.532Z,9.719272
2022-07-29T07:05:04.511Z,9.719362
2022-07-29T07:06:04.490Z,9.719259
2022-07-29T07:07:04.481Z,9.719251
2022-07-29T07:08:04.492Z,9.719212
2022-07-29T07:09:04.508Z,9.719290
2022-07-29T07:10:04.472Z,9.719275
2022-07-29T07:11:04.463Z,9.719265
2022-07-29T07:12:04.536Z,9.719229
2022-07-29T07:13:04.418Z,9.719257
2022-07-29T07:14:04.627Z,9.719275
2022-07-29T07:15:04.410Z,9.719215
2022-07-29T07:16:04.385Z,9.719253
2022-07-29T07:17:04.479Z,9.719329
2022-07-29T07:18:04.370Z,9.719258
2022-07-29T07:19:04.381Z,9.719222
2022-07-29T07:20:04.378Z,9.719255
2022-07-29T07:21:04.331Z,9.719290
2022-07-29T07:22:04.357Z,9.719305
2022-07-29T07:23:04.344Z,9.719235
2022-07-29T07:24:04.339Z,9.719229
2022-07-29T07:25:04.343Z,9.719307
2022-07-29T07:26:04.300Z,9.719366
2022-07-29T07:27:04.311Z,9.719192
2022-07-29T07:28:04.285Z,9.719240
2022-07-29T07:29:04.252Z,9.719191
2022-07-29T07:30:04.272Z,9.719274
2022-07-29T07:31:04.235Z,9.719222
2022-07-29T07:32:04.305Z,9.719193
2022-07-29T07:33:04.236Z,9.719226
2022-07-29T07:34:04.232Z,9.719225
2022-07-29T07:35:04.203Z,9.719286
2022-07-29T07:36:04.213Z,9.719581
2022-07-29T07:37:04.175Z,9.719810
2022-07-29T07:38:04.179Z,9.719843
2022-07-29T07:39:04.162Z,9.719742
2022-07-29T07:40:04.146Z,9.719839
2022-07-29T07:41:04.151Z,9.719776
2022-07-29T07:42:04.133Z,9.719709
2022-07-29T07:43:05.122Z,9.719723
2022-07-29T07:44:04.136Z,9.719544
2022-07-29T07:45:13.701Z,9.719509
2022-07-29T07:46:06.211Z,9.719533
2022-07-29T07:47:12.277Z,9.719473
2022-07-29T07:48:04.082Z,9.719500
2022-07-29T07:49:04.129Z,9.719527
2022-07-29T07:50:04.053Z,9.719480
2022-07-29T07:51:04.074Z,9.719430
2022-07-29T07:52:04.058Z,9.719537
2022-07-29T07:53:04.043Z,9.719498
2022-07-29T07:54:04.008Z,9.719467
2022-07-29T07:55:04.002Z,9.719478
2022-07-29T07:56:12.484Z,9.719477
2022-07-29T07:57:05.037Z,9.719477
2022-07-29T07:58:03.974Z,9.719492
2022-07-29T07:59:03.968Z,9.719465
2022-07-29T08:00:03.969Z,9.719444
2022-07-29T08:01:04.025Z,9.719460
2022-07-29T08:02:04.088Z,9.719419
2022-07-29T08:03:03.988Z,9.719419
2022-07-29T08:04:03.909Z,9.719398
2022-07-29T08:05:03.906Z,9.719401
2022-07-29T08:06:03.903Z,9.719398
2022-07-29T08:07:03.933Z,9.719364
2022-07-29T08:08:03.893Z,9.719373
2022-07-29T08:09:27.755Z,9.719410
2022-07-29T08:10:04.861Z,9.719407
2022-07-29T08:11:08.757Z,9.719347
2022-07-29T08:12:05.896Z,9.719376
2022-07-29T08:13:03.817Z,9.719395
2022-07-29T08:14:03.838Z,9.719388
2022-07-29T08:15:03.809Z,9.719393
2022-07-29T08:16:03.874Z,9.719386
2022-07-29T08:17:03.809Z,9.719398
2022-07-29T08:18:08.422Z,9.719423
2022-07-29T08:19:04.782Z,9.719405
2022-07-29T08:20:03.768Z,9.719367
2022-07-29T08:21:03.768Z,9.719400
2022-07-29T08:22:03.732Z,9.719356
2022-07-29T08:23:03.758Z,9.719406
2022-07-29T08:24:07.392Z,9.719433
2022-07-29T08:25:04.701Z,9.719443
2022-07-29T08:26:03.706Z,9.719440
2022-07-29T08:27:03.723Z,9.719319
2022-07-29T08:28:03.671Z,9.719362
2022-07-29T08:29:03.678Z,9.719342
2022-07-29T08:30:03.647Z,9.719321
2022-07-29T08:31:03.646Z,9.719300
2022-07-29T08:32:03.679Z,9.719291
2022-07-29T08:33:03.650Z,9.719339
2022-07-29T08:34:03.617Z,9.719289
2022-07-29T08:35:03.605Z,9.719254
2022-07-29T08:36:03.587Z,9.719247
2022-07-29T08:37:03.582Z,9.719261
2022-07-29T08:38:03.598Z,9.719288
2022-07-29T08:39:03.590Z,9.719134
2022-07-29T08:40:03.555Z,9.719140
2022-07-29T08:41:03.595Z,9.719134
2022-07-29T08:42:03.546Z,9.719305
2022-07-29T08:43:03.521Z,9.719276
2022-07-29T08:44:03.544Z,9.719262
2022-07-29T08:45:03.566Z,9.719176
2022-07-29T08:46:03.549Z,9.719170
2022-07-29T08:47:03.480Z,9.719205
2022-07-29T08:48:03.509Z,9.719220
2022-07-29T08:49:03.534Z,9.719290
2022-07-29T08:50:03.454Z,9.719219
2022-07-29T08:51:04.304Z,9.719247
2022-07-29T08:52:03.457Z,9.719307
2022-07-29T08:53:03.461Z,9.719226
2022-07-29T08:54:03.425Z,9.718957
2022-07-29T08:55:03.416Z,9.719182
2022-07-29T08:56:03.399Z,9.719283
2022-07-29T08:57:03.390Z,9.719235
2022-07-29T08:58:03.378Z,9.719168
2022-07-29T08:59:04.865Z,9.719213
2022-07-29T09:00:08.167Z,9.719254
2022-07-29T09:01:05.554Z,9.719171
2022-07-29T09:02:03.422Z,9.719216
2022-07-29T09:03:03.354Z,9.719284
2022-07-29T09:04:03.416Z,9.719271
2022-07-29T09:05:03.308Z,9.719262
2022-07-29T09:06:03.319Z,9.719207
2022-07-29T09:07:03.291Z,9.719324
2022-07-29T09:08:03.263Z,9.719402
2022-07-29T09:09:03.273Z,9.719246
2022-07-29T09:10:03.256Z,9.719193
2022-07-29T09:11:03.985Z,9.719223
2022-07-29T09:12:03.235Z,9.719193
2022-07-29T09:13:03.230Z,9.719272
2022-07-29T09:14:03.237Z,9.719230
2022-07-29T09:15:03.245Z,9.719303
2022-07-29T09:16:08.602Z,9.719312
2022-07-29T09:17:05.564Z,9.719369
2022-07-29T09:18:03.186Z,9.719263
2022-07-29T09:19:03.190Z,9.719157
2022-07-29T09:20:03.189Z,9.719179
2022-07-29T09:21:03.148Z,9.719124
2022-07-29T09:22:03.844Z,9.719195
2022-07-29T09:23:03.137Z,9.719269
2022-07-29T09:24:03.132Z,9.719209
2022-07-29T09:25:03.120Z,9.719238
2022-07-29T09:26:03.105Z,9.719204
2022-07-29T09:27:03.108Z,9.719131
2022-07-29T09:28:03.118Z,9.719193
2022-07-29T09:29:03.061Z,9.719220
2022-07-29T09:30:03.081Z,9.719117
2022-07-29T09:31:03.059Z,9.719159
2022-07-29T09:32:03.116Z,9.719163
2022-07-29T09:33:03.064Z,9.719089
2022-07-29T09:34:03.018Z,9.719009
2022-07-29T09:35:03.011Z,9.719335
2022-07-29T09:36:03.002Z,9.719400
2022-07-29T09:37:02.990Z,9.719480
2022-07-29T09:38:03.003Z,9.719307
2022-07-29T09:39:02.977Z,9.719219
2022-07-29T09:40:02.963Z,9.719013
2022-07-29T09:41:05.855Z,9.719214
2022-07-29T09:42:02.981Z,9.719448
2022-07-29T09:43:02.935Z,9.719398
2022-07-29T09:44:02.925Z,9.719444
2022-07-29T09:45:02.921Z,9.719372
2022-07-29T09:46:02.905Z,9.719127
2022-07-29T09:47:02.954Z,9.718950
2022-07-29T09:48:02.884Z,9.719009
2022-07-29T09:49:02.906Z,9.718740
2022-07-29T09:50:02.871Z,9.718902
2022-07-29T09:51:02.858Z,9.718994
2022-07-29T09:52:02.863Z,9.719173
2022-07-29T09:53:02.836Z,9.719316
2022-07-29T09:54:02.814Z,9.719307
2022-07-29T09:55:02.801Z,9.719235
2022-07-29T09:56:02.817Z,9.719232
2022-07-29T09:57:02.821Z,9.719218
2022-07-29T09:58:02.795Z,9.719254
2022-07-29T09:59:02.779Z,9.719125
2022-07-29T10:00:02.762Z,9.719269
2022-07-29T10:01:02.853Z,9.719192
2022-07-29T10:02:02.766Z,9.719358
2022-07-29T10:03:02.817Z,9.719271
2022-07-29T10:04:02.726Z,9.719271
2022-07-29T10:05:02.745Z,9.719120
2022-07-29T10:06:03.730Z,9.719274
2022-07-29T10:07:05.084Z,9.719135
2022-07-29T10:08:03.692Z,9.719028
2022-07-29T10:09:02.692Z,9.719110
2022-07-29T10:10:02.682Z,9.719321
2022-07-29T10:11:02.700Z,9.719148
2022-07-29T10:12:02.651Z,9.719223
2022-07-29T10:13:07.136Z,9.719142
2022-07-29T10:14:04.640Z,9.719093
2022-07-29T10:15:02.630Z,9.719120
2022-07-29T10:16:02.662Z,9.719176
2022-07-29T10:17:02.597Z,9.719157
2022-07-29T10:18:02.591Z,9.719166
2022-07-29T10:19:02.612Z,9.719135
2022-07-29T10:20:02.593Z,9.719130
2022-07-29T10:21:02.594Z,9.719035
2022-07-29T10:22:02.992Z,9.718937
2022-07-29T10:23:02.541Z,9.718909
2022-07-29T10:24:02.558Z,9.718951
2022-07-29T10:25:02.537Z,9.719105
2022-07-29T10:26:02.536Z,9.719142
2022-07-29T10:27:03.563Z,9.719208
2022-07-29T10:28:02.499Z,9.719239
2022-07-29T10:29:02.544Z,9.719185
2022-07-29T10:30:02.467Z,9.719209
2022-07-29T10:31:02.500Z,9.719102
2022-07-29T10:32:02.492Z,9.719193
2022-07-29T10:33:04.354Z,9.719120
2022-07-29T10:34:02.447Z,9.719068
2022-07-29T10:35:02.429Z,9.719244
2022-07-29T10:36:02.422Z,9.719144
2022-07-29T10:37:02.416Z,9.719308
2022-07-29T10:38:02.439Z,9.719431
2022-07-29T10:40:03.388Z,9.719381
2022-07-29T10:41:02.383Z,9.719193
2022-07-29T10:42:03.584Z,9.719371
2022-07-29T10:43:02.380Z,9.719418
2022-07-29T10:44:02.342Z,9.719253
2022-07-29T10:45:04.187Z,9.719170
2022-07-29T10:46:02.325Z,9.719206
2022-07-29T10:47:04.770Z,9.719378
2022-07-29T10:48:02.304Z,9.719345
2022-07-29T10:49:02.873Z,9.719213
2022-07-29T10:50:02.311Z,9.719160
2022-07-29T10:51:03.976Z,9.719215
2022-07-29T10:52:02.277Z,9.719200
2022-07-29T10:53:02.270Z,9.719277
2022-07-29T10:54:02.254Z,9.719269
2022-07-29T10:55:02.447Z,9.719238
2022-07-29T10:56:02.223Z,9.719172
2022-07-29T10:57:02.219Z,9.719306
2022-07-29T10:58:02.225Z,9.719191
2022-07-29T10:59:02.208Z,9.719149
2022-07-29T11:00:02.224Z,9.719145
2022-07-29T11:01:02.190Z,9.719224
2022-07-29T11:02:35.374Z,9.719147
2022-07-29T11:03:04.629Z,9.719144
2022-07-29T11:04:03.162Z,9.719133
2022-07-29T11:05:02.142Z,9.719157
2022-07-29T11:06:02.141Z,9.719270
2022-07-29T11:07:03.924Z,9.719080
2022-07-29T11:08:02.334Z,9.718989
2022-07-29T11:09:02.106Z,9.719114
2022-07-29T11:10:02.097Z,9.719253
2022-07-29T11:11:02.085Z,9.719428
2022-07-29T11:12:02.973Z,9.719144
2022-07-29T11:13:02.075Z,9.719249
2022-07-29T11:14:02.051Z,9.719244
2022-07-29T11:15:02.114Z,9.719061
2022-07-29T11:16:02.069Z,9.719135
2022-07-29T11:17:02.031Z,9.719148
2022-07-29T11:18:02.018Z,9.719141
2022-07-29T11:19:01.991Z,9.719281
2022-07-29T11:20:02.984Z,9.719297
2022-07-29T11:21:02.003Z,9.719146
2022-07-29T11:22:02.056Z,9.719088
2022-07-29T11:23:01.996Z,9.719099
2022-07-29T11:24:01.953Z,9.719049
2022-07-29T11:25:01.945Z,9.719168
2022-07-29T11:26:01.931Z,9.719176
2022-07-29T11:27:02.161Z,9.719254
2022-07-29T11:28:01.923Z,9.719208
2022-07-29T11:29:01.930Z,9.719187
2022-07-29T11:30:01.917Z,9.719190
2022-07-29T11:31:01.891Z,9.719240
2022-07-29T11:32:01.876Z,9.719263
2022-07-29T11:33:01.887Z,9.719325
2022-07-29T11:34:05.575Z,9.719249
2022-07-29T11:35:02.846Z,9.719229
2022-07-29T11:36:03.235Z,9.719179
2022-07-29T11:37:01.845Z,9.719140
2022-07-29T11:38:01.825Z,9.719178
2022-07-29T11:39:01.805Z,9.719089
2022-07-29T11:40:02.189Z,9.719221
2022-07-29T11:41:02.780Z,9.719186
2022-07-29T11:42:05.001Z,9.719073
2022-07-29T11:43:07.346Z,9.719202
2022-07-29T11:44:01.760Z,9.719113
2022-07-29T11:45:04.353Z,9.719117